VJC1224 VVTS-VVDL
Flight info
| Callsign | VJC1224 |
|---|---|
| Flight time | 0h 18m |
| Altitude | 15000 |
| Route | BIXE5C SAKOD BIXEX SAKOD1G |
| Aircraft | A21N/M-SDE3FGHIRWY/LB1 |
Departure
| Time | 2026-04-28 03:41 |
|---|---|
| Airport | Tan Son Nhat International Airport (VVTS) |
Arrival
| Time | 2026-04-28 04:00 |
|---|---|
| Airport | Lien Khuong Airport (VVDL) |
| Time | Latitude | Longitude | Altitude | Speed | Heading |
|---|---|---|---|---|---|
| 2026-04-28 03:41 | 10.71608 | 106.90587 | 11808 ft | 390 kts | 90° |
| 2026-04-28 03:41 | 10.71586 | 106.93370 | 12102 ft | 397 kts | 90° |
| 2026-04-28 03:41 | 10.71567 | 106.96172 | 12532 ft | 401 kts | 90° |
| 2026-04-28 03:41 | 10.71555 | 106.99020 | 12978 ft | 403 kts | 90° |
| 2026-04-28 03:42 | 10.71548 | 107.01862 | 13405 ft | 406 kts | 90° |
| 2026-04-28 03:42 | 10.71545 | 107.04719 | 13825 ft | 409 kts | 91° |
| 2026-04-28 03:42 | 10.71543 | 107.07644 | 14259 ft | 412 kts | 91° |
| 2026-04-28 03:42 | 10.71542 | 107.10540 | 14693 ft | 414 kts | 91° |
| 2026-04-28 03:43 | 10.71540 | 107.13463 | 15119 ft | 416 kts | 91° |
| 2026-04-28 03:43 | 10.71538 | 107.16403 | 15544 ft | 418 kts | 91° |
| 2026-04-28 03:43 | 10.71537 | 107.19347 | 15961 ft | 420 kts | 91° |
| 2026-04-28 03:43 | 10.71535 | 107.22328 | 16375 ft | 422 kts | 91° |
| 2026-04-28 03:44 | 10.71533 | 107.25311 | 16782 ft | 424 kts | 91° |
| 2026-04-28 03:44 | 10.71536 | 107.28324 | 17183 ft | 426 kts | 90° |
| 2026-04-28 03:44 | 10.71981 | 107.31271 | 17516 ft | 431 kts | 72° |
| 2026-04-28 03:44 | 10.73366 | 107.33986 | 17890 ft | 434 kts | 52° |
| 2026-04-28 03:45 | 10.75454 | 107.36173 | 18298 ft | 434 kts | 42° |
| 2026-04-28 03:45 | 10.77720 | 107.38208 | 18657 ft | 437 kts | 41° |
| 2026-04-28 03:45 | 10.80007 | 107.40231 | 18984 ft | 439 kts | 41° |
| 2026-04-28 03:45 | 10.82296 | 107.42271 | 19330 ft | 442 kts | 41° |
| 2026-04-28 03:46 | 10.84621 | 107.44364 | 19680 ft | 444 kts | 41° |
| 2026-04-28 03:46 | 10.86900 | 107.46429 | 20014 ft | 446 kts | 42° |
| 2026-04-28 03:46 | 10.89223 | 107.48544 | 20356 ft | 447 kts | 42° |
| 2026-04-28 03:46 | 10.91535 | 107.50655 | 20694 ft | 449 kts | 42° |
| 2026-04-28 03:47 | 10.93881 | 107.52799 | 20895 ft | 451 kts | 42° |
| 2026-04-28 03:47 | 10.96186 | 107.54909 | 20898 ft | 450 kts | 42° |
| 2026-04-28 03:47 | 10.98518 | 107.57044 | 20900 ft | 449 kts | 43° |
| 2026-04-28 03:47 | 11.00819 | 107.59153 | 20901 ft | 449 kts | 43° |
| 2026-04-28 03:48 | 11.03128 | 107.61269 | 20902 ft | 448 kts | 43° |
| 2026-04-28 03:48 | 11.05456 | 107.63403 | 20902 ft | 448 kts | 43° |
| 2026-04-28 03:48 | 11.07767 | 107.65521 | 20814 ft | 446 kts | 43° |
| 2026-04-28 03:48 | 11.10065 | 107.67628 | 20370 ft | 446 kts | 43° |
| 2026-04-28 03:49 | 11.12383 | 107.69756 | 19872 ft | 462 kts | 43° |
| 2026-04-28 03:49 | 11.14772 | 107.71948 | 19320 ft | 469 kts | 42° |
| 2026-04-28 03:49 | 11.17181 | 107.74158 | 18765 ft | 463 kts | 42° |
| 2026-04-28 03:49 | 11.19541 | 107.76323 | 18215 ft | 456 kts | 42° |
| 2026-04-28 03:50 | 11.21893 | 107.78481 | 17659 ft | 449 kts | 42° |
| 2026-04-28 03:50 | 11.24200 | 107.80599 | 17107 ft | 443 kts | 42° |
| 2026-04-28 03:50 | 11.26455 | 107.82671 | 16560 ft | 438 kts | 42° |
| 2026-04-28 03:50 | 11.28706 | 107.84740 | 16006 ft | 433 kts | 42° |
| 2026-04-28 03:51 | 11.30936 | 107.86789 | 15459 ft | 438 kts | 41° |
| 2026-04-28 03:51 | 11.33217 | 107.88886 | 14901 ft | 441 kts | 41° |
| 2026-04-28 03:51 | 11.35486 | 107.90971 | 14347 ft | 435 kts | 41° |
| 2026-04-28 03:51 | 11.37690 | 107.92999 | 13801 ft | 429 kts | 41° |
| 2026-04-28 03:52 | 11.39881 | 107.95015 | 13251 ft | 423 kts | 41° |
| 2026-04-28 03:52 | 11.42035 | 107.96995 | 12720 ft | 417 kts | 41° |
| 2026-04-28 03:52 | 11.44177 | 107.98965 | 12193 ft | 412 kts | 41° |
| 2026-04-28 03:52 | 11.46278 | 108.00897 | 11671 ft | 405 kts | 41° |
| 2026-04-28 03:53 | 11.48337 | 108.02790 | 11157 ft | 386 kts | 41° |
| 2026-04-28 03:53 | 11.50249 | 108.04550 | 10639 ft | 367 kts | 41° |
| 2026-04-28 03:53 | 11.52102 | 108.06257 | 10112 ft | 350 kts | 42° |
| 2026-04-28 03:53 | 11.53865 | 108.07882 | 9586 ft | 336 kts | 42° |
| 2026-04-28 03:54 | 11.55575 | 108.09459 | 9046 ft | 333 kts | 42° |
| 2026-04-28 03:54 | 11.57298 | 108.11047 | 8516 ft | 334 kts | 43° |
| 2026-04-28 03:54 | 11.59002 | 108.12616 | 8037 ft | 333 kts | 42° |
| 2026-04-28 03:54 | 11.60806 | 108.14017 | 7741 ft | 316 kts | 32° |
| 2026-04-28 03:55 | 11.62683 | 108.15057 | 7539 ft | 304 kts | 26° |
| 2026-04-28 03:55 | 11.64590 | 108.15983 | 7457 ft | 303 kts | 24° |
| 2026-04-28 03:55 | 11.66594 | 108.16543 | 7311 ft | 302 kts | 4° |
| 2026-04-28 03:55 | 11.68691 | 108.16531 | 6927 ft | 302 kts | 356° |
| 2026-04-28 03:56 | 11.70778 | 108.16472 | 6504 ft | 301 kts | 8° |
| 2026-04-28 03:56 | 11.72698 | 108.17178 | 6347 ft | 286 kts | 36° |
| 2026-04-28 03:56 | 11.74018 | 108.18571 | 6170 ft | 264 kts | 64° |
| 2026-04-28 03:56 | 11.74568 | 108.20269 | 5900 ft | 245 kts | 85° |
| 2026-04-28 03:57 | 11.74673 | 108.21958 | 5585 ft | 235 kts | 92° |
| 2026-04-28 03:57 | 11.74688 | 108.23592 | 5343 ft | 223 kts | 91° |
| 2026-04-28 03:57 | 11.74739 | 108.25119 | 4977 ft | 213 kts | 90° |
| 2026-04-28 03:57 | 11.74816 | 108.26562 | 4735 ft | 195 kts | 89° |
| 2026-04-28 03:58 | 11.74888 | 108.27900 | 4447 ft | 181 kts | 90° |
| 2026-04-28 03:58 | 11.74950 | 108.29111 | 4229 ft | 167 kts | 90° |
| 2026-04-28 03:58 | 11.75008 | 108.30291 | 4022 ft | 166 kts | 90° |
| 2026-04-28 03:58 | 11.75066 | 108.31464 | 3803 ft | 164 kts | 90° |
| 2026-04-28 03:59 | 11.75118 | 108.32622 | 3637 ft | 164 kts | 89° |
| 2026-04-28 03:59 | 11.75188 | 108.33786 | 3386 ft | 162 kts | 89° |
| 2026-04-28 03:59 | 11.75245 | 108.34929 | 3203 ft | 160 kts | 90° |
| 2026-04-28 03:59 | 11.75298 | 108.36027 | 3161 ft | 135 kts | 89° |
| 2026-04-28 04:00 | 11.75330 | 108.36667 | 3161 ft | 47 kts | 87° |
| 2026-04-28 04:00 | 11.75343 | 108.36919 | 3161 ft | 33 kts | 86° |